Airfield :







YOU CAN JOIN US ON...

 
LOGIN :

Register | Disclaimer

   EN    FR    IT 

 









Legend :    VFR   Marginal VFR   IFR   Intensive IFR   Very Intensive IFR
Visi :
Ceiling :
>= 8 km
>= 3000ft
5 to 8 km
1000 to 3000 ft
1500m to 5 km
500 to 1000 ft
800 to 1500m
200 to 500 ft
< 800m
< 200 ft
Symbols :   Thunderstorms  Fog  Heavy snow  Heavy precipitations  Wind > 20 kt






- Airport Elevation : 342 ft


KCON - Concord Municipal

CURRENT METAR :
  • 120451Z AUTO 29013KT 10SM SCT048 M02/M12 A3030 RMK AO2 SLP266 T10221122 400171056

EXPIRED METARs :
  • 120351Z AUTO 26008KT 10SM CLR M03/M09 A3027 RMK AO2 SLP255 T10281094
  • 120251Z AUTO 21004KT 10SM CLR M04/M09 A3026 RMK AO2 SLP251 T10391089 52015

TAF KCON
Valid from the 12 at 00:00 until the 13 at 00:00 UTC


112335Z 1200/1224 28008KT P6SM SKC



MET'MAP, your aeronautical weather chart ! - Copyright ORBIFLY December 2007 - Disclaimer

ORBIFLY MET'MAP TEAM :

Programming & Development : Alexandra Zaïnal
Concept & original design : Baudouin d'Aumeries
Assistance for programming : Marc-Olivier Méhu
Technical & hardware support : Manuel Goepfert

Contact : metmap@orbifly.com




SOURCES & CREDITS :

   NOAA